Time;durP1;ratioP1;P1;durP2;ratioP2;P2;SDS_P1;SDS_P2;PMS_P1;PMS_P2;Temp;Humidity;BMP_temperature;BMP_pressure;BME280_temperature;BME280_humidity;BME280_pressure;Samples;Min_cycle;Max_cycle;Signal;HPM_P1;HPM_P2
2022/04/15 00:02:01;;;;;;;16.27;12.10;;;12.10;99.90;;;;;;5051901;28;20203;-54
2022/04/15 00:04:30;;;;;;;15.80;11.93;;;12.10;99.90;;;;;;5052519;28;20206;-54
2022/04/15 00:06:59;;;;;;;19.93;12.20;;;12.10;99.90;;;;;;5056206;28;20208;-54
2022/04/15 00:09:25;;;;;;;18.53;12.27;;;12.10;99.90;;;;;;5057140;28;20286;-53
2022/04/15 00:11:53;;;;;;;14.13;11.30;;;12.10;99.90;;;;;;5056050;28;20261;-53
2022/04/15 00:14:20;;;;;;;16.27;11.53;;;12.10;99.90;;;;;;5057070;28;20206;-53
2022/04/15 00:16:48;;;;;;;20.37;12.23;;;12.10;99.90;;;;;;5055492;28;20199;-53
2022/04/15 00:19:15;;;;;;;19.73;10.90;;;12.10;99.90;;;;;;5057980;28;20202;-54
2022/04/15 00:21:43;;;;;;;18.30;12.53;;;12.10;99.90;;;;;;5057050;28;20405;-54
2022/04/15 00:24:10;;;;;;;14.83;10.87;;;12.00;99.90;;;;;;5058080;28;20754;-55
2022/04/15 00:26:36;;;;;;;13.83;10.10;;;12.00;99.90;;;;;;5056909;28;20200;-55
2022/04/15 00:29:06;;;;;;;16.07;11.27;;;12.00;99.90;;;;;;5060423;28;20654;-54
2022/04/15 00:31:34;;;;;;;15.40;10.43;;;12.00;99.90;;;;;;5054540;28;20733;-54
2022/04/15 00:34:02;;;;;;;17.50;11.73;;;12.00;99.90;;;;;;5052714;28;20288;-53
2022/04/15 00:36:30;;;;;;;16.70;11.57;;;12.00;99.90;;;;;;5049134;28;20220;-53
2022/04/15 00:38:57;;;;;;;16.93;10.80;;;12.00;99.90;;;;;;5057088;28;20188;-53
2022/04/15 00:41:24;;;;;;;14.73;11.40;;;12.00;99.90;;;;;;5055668;28;21458;-53
2022/04/15 00:43:55;;;;;;;23.30;12.27;;;12.00;99.90;;;;;;5056237;28;20270;-54
2022/04/15 00:46:22;;;;;;;16.43;12.23;;;11.90;99.90;;;;;;5052672;28;20210;-53
2022/04/15 00:48:49;;;;;;;14.97;12.03;;;11.90;99.90;;;;;;5057847;28;20209;-53
2022/04/15 00:51:16;;;;;;;18.33;11.77;;;11.80;99.90;;;;;;5053703;28;20209;-52
2022/04/15 00:53:45;;;;;;;19.83;12.23;;;12.00;99.90;;;;;;5057538;28;20212;-53
2022/04/15 00:56:12;;;;;;;19.77;12.93;;;11.90;99.90;;;;;;5053963;28;20201;-53
2022/04/15 00:58:40;;;;;;;19.67;12.50;;;11.90;99.90;;;;;;5052955;28;20206;-53
2022/04/15 01:01:08;;;;;;;20.83;13.60;;;11.90;99.90;;;;;;5055299;28;20204;-55
2022/04/15 01:03:36;;;;;;;17.97;13.07;;;11.80;99.90;;;;;;5054277;28;20199;-54
2022/04/15 01:06:06;;;;;;;19.03;13.10;;;11.80;99.90;;;;;;5053993;28;20639;-54
2022/04/15 01:08:37;;;;;;;17.87;13.23;;;11.70;99.90;;;;;;5053702;28;20203;-55
2022/04/15 01:11:06;;;;;;;18.60;13.33;;;11.70;99.90;;;;;;5057618;28;21527;-54
2022/04/15 01:13:36;;;;;;;23.00;14.10;;;11.70;99.90;;;;;;5057638;28;20219;-55
2022/04/15 01:16:05;;;;;;;19.43;13.80;;;11.70;99.90;;;;;;5053033;28;20569;-55
2022/04/15 01:18:32;;;;;;;21.70;13.90;;;11.60;99.90;;;;;;5055873;28;20647;-54
2022/04/15 01:21:00;;;;;;;20.43;13.90;;;11.50;99.90;;;;;;5059436;28;20630;-55
2022/04/15 01:23:28;;;;;;;19.73;12.70;;;11.60;99.90;;;;;;5057778;28;20402;-53
2022/04/15 01:25:54;;;;;;;21.50;14.63;;;11.80;99.90;;;;;;5052176;28;20344;-54
2022/04/15 01:28:21;;;;;;;21.77;14.43;;;11.60;99.90;;;;;;5052530;28;20205;-55
2022/04/15 01:30:49;;;;;;;20.83;15.67;;;11.50;99.90;;;;;;5055643;28;20207;-54
2022/04/15 01:33:16;;;;;;;23.47;13.97;;;11.50;99.90;;;;;;5053209;28;20253;-54
2022/04/15 01:35:47;;;;;;;23.10;13.73;;;11.40;99.90;;;;;;5055848;28;20260;-54
2022/04/15 01:38:17;;;;;;;20.00;13.00;;;11.40;99.90;;;;;;5052956;28;20199;-54
2022/04/15 01:40:45;;;;;;;20.23;14.07;;;11.30;99.90;;;;;;5052790;28;20281;-54
2022/04/15 01:43:12;;;;;;;26.37;14.27;;;11.30;99.90;;;;;;5033096;28;20232;-54
2022/04/15 01:45:39;;;;;;;19.93;13.70;;;11.20;99.90;;;;;;5055727;28;20229;-53
2022/04/15 01:48:06;;;;;;;24.57;14.00;;;11.20;99.90;;;;;;5054904;28;20576;-54
2022/04/15 01:50:33;;;;;;;21.93;14.03;;;11.20;99.90;;;;;;5056602;28;20286;-54
2022/04/15 01:53:00;;;;;;;22.83;13.57;;;11.20;99.90;;;;;;5053993;28;20208;-55
2022/04/15 01:55:28;;;;;;;21.33;13.77;;;11.20;99.90;;;;;;5054947;28;20205;-54
2022/04/15 01:57:56;;;;;;;21.10;14.33;;;11.30;99.90;;;;;;5058062;28;20203;-55
2022/04/15 02:00:23;;;;;;;21.17;13.67;;;11.20;99.90;;;;;;5053694;28;20594;-55
2022/04/15 02:02:50;;;;;;;21.33;12.83;;;11.10;99.90;;;;;;5054964;28;20315;-54
2022/04/15 02:05:17;;;;;;;19.17;13.43;;;11.10;99.90;;;;;;5054009;28;20208;-54
2022/04/15 02:07:44;;;;;;;22.93;14.10;;;11.00;99.90;;;;;;5054260;28;20638;-54
2022/04/15 02:10:11;;;;;;;21.70;13.63;;;11.00;99.90;;;;;;5053277;28;20202;-54
2022/04/15 02:12:38;;;;;;;19.90;13.97;;;10.90;99.90;;;;;;5057596;28;20215;-54
2022/04/15 02:15:06;;;;;;;18.67;13.37;;;10.90;99.90;;;;;;5056120;28;20214;-56
2022/04/15 02:17:33;;;;;;;20.33;13.40;;;11.00;99.90;;;;;;5054622;28;20196;-55
2022/04/15 02:20:00;;;;;;;22.23;13.80;;;10.90;99.90;;;;;;5058270;28;20198;-54
2022/04/15 02:22:27;;;;;;;20.40;13.77;;;11.00;99.90;;;;;;5061143;28;20240;-55
2022/04/15 02:24:54;;;;;;;20.87;14.00;;;10.90;99.90;;;;;;5058464;28;20243;-54
2022/04/15 02:27:21;;;;;;;21.47;13.73;;;10.80;99.90;;;;;;5059162;28;20682;-54
2022/04/15 02:29:48;;;;;;;21.60;13.40;;;10.80;99.90;;;;;;5058472;28;20231;-54
2022/04/15 02:32:15;;;;;;;21.60;13.67;;;10.80;99.90;;;;;;5058155;28;20947;-53
2022/04/15 02:34:42;;;;;;;22.73;13.80;;;10.70;99.90;;;;;;5057560;28;20714;-53
2022/04/15 02:37:08;;;;;;;22.27;13.60;;;10.80;99.90;;;;;;5057771;28;20286;-53
2022/04/15 02:39:35;;;;;;;20.53;12.97;;;10.80;99.90;;;;;;5054918;28;20291;-53
2022/04/15 02:42:02;;;;;;;19.47;13.40;;;10.70;99.90;;;;;;5057892;28;20199;-53
2022/04/15 02:44:30;;;;;;;21.43;14.50;;;10.80;99.90;;;;;;5054190;28;20230;-54
2022/04/15 02:46:58;;;;;;;20.27;13.30;;;10.80;99.90;;;;;;5054604;28;20197;-54
2022/04/15 02:49:27;;;;;;;20.87;13.33;;;10.70;99.90;;;;;;5055692;28;20235;-54
2022/04/15 02:51:55;;;;;;;21.47;13.53;;;10.60;99.90;;;;;;5059615;28;20204;-54
2022/04/15 02:54:26;;;;;;;15.80;12.23;;;10.60;99.90;;;;;;5058740;28;20281;-54
2022/04/15 02:56:52;;;;;;;22.77;14.23;;;10.60;99.90;;;;;;5059007;28;20213;-53
2022/04/15 02:59:20;;;;;;;22.40;13.83;;;10.40;99.90;;;;;;5057372;28;20205;-54
2022/04/15 03:01:49;;;;;;;21.87;13.60;;;10.40;99.90;;;;;;5054682;28;20193;-54
2022/04/15 03:04:17;;;;;;;23.77;14.93;;;10.30;99.90;;;;;;5059066;28;20200;-56
2022/04/15 03:06:44;;;;;;;20.60;14.53;;;10.30;99.90;;;;;;5058557;28;20202;-55
2022/04/15 03:09:11;;;;;;;23.00;14.97;;;10.10;99.90;;;;;;5059346;28;20227;-54
2022/04/15 03:11:38;;;;;;;25.77;15.77;;;10.20;99.90;;;;;;5063823;28;20641;-53
2022/04/15 03:14:06;;;;;;;24.23;15.20;;;10.10;99.90;;;;;;5057903;28;20225;-54
2022/04/15 03:16:33;;;;;;;26.97;15.30;;;10.20;99.90;;;;;;5058175;28;20192;-54
2022/04/15 03:19:01;;;;;;;21.87;15.30;;;10.10;99.90;;;;;;5058110;28;20278;-55
2022/04/15 03:21:28;;;;;;;24.47;15.80;;;10.10;99.90;;;;;;5060466;28;20216;-54
2022/04/15 03:23:55;;;;;;;26.33;16.47;;;10.10;99.90;;;;;;5059912;28;20718;-54
2022/04/15 03:26:22;;;;;;;26.67;16.83;;;9.90;99.90;;;;;;5059791;28;20712;-54
2022/04/15 03:28:49;;;;;;;24.20;16.50;;;10.00;99.90;;;;;;5058412;28;20283;-54
2022/04/15 03:31:16;;;;;;;23.87;17.03;;;9.80;99.90;;;;;;5056335;28;20712;-54
2022/04/15 03:33:43;;;;;;;27.07;15.97;;;9.90;99.90;;;;;;5056729;28;20973;-54
2022/04/15 03:36:10;;;;;;;19.70;15.20;;;9.90;99.90;;;;;;5062199;28;20642;-56
2022/04/15 03:38:38;;;;;;;23.47;15.47;;;9.80;99.90;;;;;;5058175;28;20229;-54
2022/04/15 03:41:05;;;;;;;22.47;14.90;;;9.80;99.90;;;;;;5062907;28;20205;-54
2022/04/15 03:43:32;;;;;;;24.27;15.47;;;9.70;99.90;;;;;;5063872;28;20203;-56
2022/04/15 03:45:59;;;;;;;18.27;13.43;;;9.70;99.90;;;;;;5059609;28;20209;-56
2022/04/15 03:48:27;;;;;;;17.30;11.47;;;9.70;99.90;;;;;;5057295;28;20703;-55
2022/04/15 03:50:54;;;;;;;17.63;12.03;;;9.50;99.90;;;;;;5055890;28;20231;-54
2022/04/15 03:53:21;;;;;;;17.00;11.50;;;9.50;99.90;;;;;;5055003;28;20845;-55
2022/04/15 03:55:50;;;;;;;16.90;11.50;;;9.60;99.90;;;;;;5058243;28;20199;-54
2022/04/15 03:58:18;;;;;;;16.27;11.40;;;9.60;99.90;;;;;;5053731;28;20268;-54
2022/04/15 04:00:45;;;;;;;19.47;12.10;;;9.40;99.90;;;;;;5056890;28;20270;-56
2022/04/15 04:03:13;;;;;;;16.60;12.07;;;9.50;99.90;;;;;;5060309;28;20211;-54
2022/04/15 04:05:41;;;;;;;23.00;13.27;;;9.40;99.90;;;;;;5057281;28;20293;-54
2022/04/15 04:08:08;;;;;;;17.37;11.40;;;9.40;99.90;;;;;;5058573;28;20204;-56
2022/04/15 04:10:35;;;;;;;15.97;10.93;;;9.30;99.90;;;;;;5056258;28;20217;-54
2022/04/15 04:13:03;;;;;;;19.23;12.37;;;9.40;99.90;;;;;;5058706;28;20303;-54
2022/04/15 04:15:31;;;;;;;19.30;12.23;;;9.40;99.90;;;;;;5061241;28;20612;-55
2022/04/15 04:17:59;;;;;;;16.03;11.10;;;9.40;99.90;;;;;;5039767;28;20191;-55
2022/04/15 04:20:26;;;;;;;16.93;12.10;;;9.30;99.90;;;;;;5057892;28;20201;-55
2022/04/15 04:22:53;;;;;;;18.53;11.87;;;9.30;99.90;;;;;;5060280;28;20601;-54
2022/04/15 04:25:20;;;;;;;19.97;11.87;;;9.30;99.90;;;;;;5058900;28;20202;-54
2022/04/15 04:27:47;;;;;;;18.07;11.63;;;9.40;99.90;;;;;;5056741;28;20823;-54
2022/04/15 04:30:15;;;;;;;15.90;11.43;;;9.50;99.90;;;;;;5058422;28;20286;-56
2022/04/15 04:32:52;;;;;;;18.03;11.53;;;9.60;99.90;;;;;;5060200;28;20805;-55
2022/04/15 04:35:21;;;;;;;15.73;11.77;;;9.60;99.90;;;;;;5043025;28;20605;-54
2022/04/15 04:37:48;;;;;;;15.63;10.97;;;9.60;99.90;;;;;;5057557;28;20555;-55
2022/04/15 04:40:16;;;;;;;16.50;11.93;;;9.80;99.90;;;;;;5059303;28;21049;-54
2022/04/15 04:42:44;;;;;;;18.20;14.37;;;9.70;99.90;;;;;;5059915;28;20223;-54
2022/04/15 04:45:12;;;;;;;14.40;10.90;;;9.60;99.90;;;;;;5054801;28;20676;-55
2022/04/15 04:47:41;;;;;;;16.03;10.70;;;9.50;99.90;;;;;;5058998;28;20671;-55
2022/04/15 04:50:09;;;;;;;16.27;10.90;;;9.50;99.90;;;;;;5052695;28;20217;-54
2022/04/15 04:52:37;;;;;;;19.27;11.63;;;9.70;99.90;;;;;;5057173;28;20621;-55
2022/04/15 04:55:05;;;;;;;13.83;10.83;;;9.70;99.90;;;;;;5056738;28;20918;-54
2022/04/15 04:57:32;;;;;;;15.37;10.90;;;9.60;99.90;;;;;;5054006;28;20269;-56
2022/04/15 04:59:59;;;;;;;15.37;11.27;;;9.60;99.90;;;;;;5054005;28;20235;-55
2022/04/15 05:02:26;;;;;;;16.67;10.27;;;9.50;99.90;;;;;;5055224;28;21495;-55
2022/04/15 05:04:53;;;;;;;14.77;11.13;;;9.50;99.90;;;;;;5053755;28;20268;-54
2022/04/15 05:07:19;;;;;;;17.87;12.00;;;9.50;99.90;;;;;;5059586;28;20230;-54
2022/04/15 05:09:46;;;;;;;15.23;11.30;;;9.50;99.90;;;;;;5057707;28;20212;-56
2022/04/15 05:12:13;;;;;;;13.77;10.23;;;9.40;99.90;;;;;;5054604;28;20225;-55
2022/04/15 05:14:40;;;;;;;13.60;10.23;;;9.40;99.90;;;;;;5055207;28;20271;-56
2022/04/15 05:17:07;;;;;;;13.07;9.63;;;9.30;99.90;;;;;;5057722;28;20206;-55
2022/04/15 05:19:40;;;;;;;14.50;10.53;;;9.10;99.90;;;;;;5056924;28;20248;-53
2022/04/15 05:22:08;;;;;;;17.03;9.77;;;9.30;99.90;;;;;;5059536;28;20820;-56
2022/04/15 05:24:35;;;;;;;18.43;10.57;;;9.30;99.90;;;;;;5060640;28;20226;-56
2022/04/15 05:27:03;;;;;;;15.83;9.90;;;9.40;99.90;;;;;;5056959;28;20250;-55
2022/04/15 05:29:29;;;;;;;14.87;10.07;;;9.30;99.90;;;;;;5056117;28;20228;-55
2022/04/15 05:31:56;;;;;;;13.50;9.70;;;9.30;99.90;;;;;;5057060;28;20659;-54
2022/04/15 05:34:23;;;;;;;14.93;10.17;;;9.30;99.90;;;;;;5058027;28;20208;-55
2022/04/15 05:36:50;;;;;;;14.20;9.63;;;9.40;99.90;;;;;;5052339;28;20209;-53
2022/04/15 05:39:16;;;;;;;16.50;9.90;;;9.50;99.90;;;;;;5056940;28;20206;-56
2022/04/15 05:41:43;;;;;;;15.63;10.83;;;9.50;99.90;;;;;;5056752;28;20649;-55
2022/04/15 05:44:12;;;;;;;14.60;9.90;;;9.50;99.90;;;;;;5054935;28;20675;-55
2022/04/15 05:46:42;;;;;;;14.60;9.80;;;9.40;99.90;;;;;;5049092;28;20309;-54
2022/04/15 05:49:16;;;;;;;12.73;9.73;;;9.40;99.90;;;;;;5052519;28;20240;-55
2022/04/15 05:51:45;;;;;;;14.10;9.80;;;9.60;99.90;;;;;;5061391;28;20198;-55
2022/04/15 05:54:12;;;;;;;15.07;10.23;;;9.80;99.90;;;;;;5066281;28;20247;-55
2022/04/15 05:56:39;;;;;;;18.30;12.20;;;9.80;99.90;;;;;;5065358;28;20200;-54
2022/04/15 05:59:06;;;;;;;15.67;11.30;;;9.80;99.90;;;;;;5063150;28;20928;-54
2022/04/15 06:01:33;;;;;;;15.63;11.07;;;9.90;99.90;;;;;;5059959;28;20570;-57
2022/04/15 06:04:01;;;;;;;11.43;9.23;;;10.00;99.90;;;;;;5062678;28;20500;-54
2022/04/15 06:06:27;;;;;;;17.67;10.10;;;9.80;99.90;;;;;;5057757;28;20254;-55
2022/04/15 06:08:54;;;;;;;11.37;9.57;;;9.70;99.90;;;;;;5063745;28;20213;-55
2022/04/15 06:11:21;;;;;;;10.97;8.13;;;9.60;99.90;;;;;;5065837;28;20683;-56
2022/04/15 06:13:49;;;;;;;12.37;8.53;;;9.70;99.90;;;;;;5062251;28;20829;-54
2022/04/15 06:16:17;;;;;;;10.50;7.70;;;9.80;99.90;;;;;;5058869;28;20200;-56
2022/04/15 06:18:44;;;;;;;13.00;7.90;;;9.90;99.90;;;;;;5062487;28;20205;-55
2022/04/15 06:21:30;;;;;;;19.43;7.60;;;10.00;99.90;;;;;;5069517;28;20240;-54
2022/04/15 06:23:57;;;;;;;13.57;7.30;;;10.00;99.90;;;;;;5067187;28;20239;-54
2022/04/15 06:26:24;;;;;;;10.40;7.03;;;10.00;99.90;;;;;;5071438;28;20205;-55
2022/04/15 06:28:51;;;;;;;11.03;6.93;;;10.20;99.90;;;;;;5066875;28;20679;-55
2022/04/15 06:31:18;;;;;;;9.60;6.80;;;10.20;99.90;;;;;;5065525;28;20548;-56
2022/04/15 06:33:45;;;;;;;10.30;5.83;;;10.10;99.90;;;;;;5064709;28;20286;-56
2022/04/15 06:36:12;;;;;;;9.77;6.20;;;10.10;99.90;;;;;;5066301;28;20223;-56
2022/04/15 06:38:39;;;;;;;9.50;7.03;;;10.00;99.90;;;;;;5066922;28;20196;-54
2022/04/15 06:41:05;;;;;;;12.67;7.77;;;10.00;99.90;;;;;;5066785;28;20287;-57
2022/04/15 06:43:32;;;;;;;9.13;6.87;;;10.20;99.90;;;;;;5062135;28;20195;-53
2022/04/15 06:46:00;;;;;;;12.33;7.53;;;10.10;99.90;;;;;;5061742;28;20260;-55
2022/04/15 06:48:27;;;;;;;11.70;7.73;;;10.10;99.90;;;;;;5054395;28;20648;-54
2022/04/15 06:50:54;;;;;;;14.60;8.30;;;10.30;99.90;;;;;;5067423;28;20238;-55
2022/04/15 06:53:23;;;;;;;9.93;8.27;;;10.30;99.90;;;;;;5064376;28;20659;-54
2022/04/15 06:55:51;;;;;;;11.67;8.20;;;10.20;99.90;;;;;;5067593;28;20272;-54
2022/04/15 06:58:18;;;;;;;12.77;9.10;;;10.20;99.90;;;;;;5062076;28;20543;-54
2022/04/15 07:00:48;;;;;;;13.50;8.43;;;10.40;99.90;;;;;;5060531;28;20202;-55
2022/04/15 07:03:15;;;;;;;11.40;8.53;;;10.40;99.90;;;;;;5065699;28;20652;-54
2022/04/15 07:05:43;;;;;;;14.57;8.90;;;10.40;99.90;;;;;;5066307;28;20203;-54
2022/04/15 07:08:11;;;;;;;12.80;8.00;;;10.30;99.90;;;;;;5068739;28;20723;-54
2022/04/15 07:10:39;;;;;;;11.70;8.00;;;10.20;99.90;;;;;;5069639;28;20629;-56
2022/04/15 07:13:06;;;;;;;12.17;8.50;;;10.30;99.90;;;;;;5061650;28;20510;-55
2022/04/15 07:15:33;;;;;;;11.13;8.23;;;10.50;99.90;;;;;;5060082;28;20214;-55
2022/04/15 07:18:00;;;;;;;10.97;8.10;;;10.50;99.90;;;;;;5062268;28;20228;-53
2022/04/15 07:20:27;;;;;;;15.10;8.70;;;10.50;99.90;;;;;;5067195;28;20545;-54
2022/04/15 07:22:58;;;;;;;12.10;8.40;;;10.50;99.90;;;;;;5066846;28;20236;-54
2022/04/15 07:25:25;;;;;;;18.63;8.10;;;10.50;99.90;;;;;;5067923;28;20226;-55
2022/04/15 07:27:56;;;;;;;11.70;8.53;;;10.70;99.90;;;;;;5063690;28;20256;-54
2022/04/15 07:30:24;;;;;;;12.87;8.40;;;10.80;99.90;;;;;;5066681;28;20201;-61
2022/04/15 07:32:52;;;;;;;13.73;7.50;;;10.60;99.90;;;;;;5066107;28;20488;-54
2022/04/15 07:35:19;;;;;;;11.17;7.27;;;10.50;99.90;;;;;;5066781;28;20737;-56
2022/04/15 07:37:45;;;;;;;11.20;7.63;;;10.50;99.90;;;;;;5069067;28;20256;-55
2022/04/15 07:40:12;;;;;;;12.07;8.23;;;10.50;99.90;;;;;;5069735;28;20715;-56
2022/04/15 07:42:40;;;;;;;9.97;6.87;;;10.60;99.90;;;;;;5064794;28;20199;-54
2022/04/15 07:45:08;;;;;;;7.90;6.37;;;10.40;99.90;;;;;;5066504;28;20202;-54
2022/04/15 07:47:35;;;;;;;7.70;6.03;;;10.50;99.90;;;;;;5062874;28;20205;-54
2022/04/15 07:50:22;;;;;;;5.87;5.27;;;10.60;99.90;;;;;;5062492;28;20601;-56
2022/04/15 07:52:50;;;;;;;8.47;6.00;;;10.60;99.90;;;;;;5068528;28;20201;-55
2022/04/15 07:55:17;;;;;;;8.30;6.17;;;10.50;99.90;;;;;;5063587;28;20688;-54
2022/04/15 07:57:44;;;;;;;7.57;5.83;;;10.50;99.90;;;;;;5066130;28;20580;-56
2022/04/15 08:00:11;;;;;;;7.73;6.93;;;10.70;99.90;;;;;;5063555;28;20367;-55
2022/04/15 08:02:38;;;;;;;9.40;5.87;;;10.80;99.90;;;;;;5056954;28;20282;-55
2022/04/15 08:05:05;;;;;;;8.53;5.93;;;10.80;99.90;;;;;;5063519;28;20202;-55
2022/04/15 08:07:32;;;;;;;7.10;6.17;;;10.80;99.90;;;;;;5064573;28;20639;-57
2022/04/15 08:09:59;;;;;;;8.00;5.57;;;10.90;99.90;;;;;;5063818;28;20201;-54
2022/04/15 08:12:26;;;;;;;6.60;5.27;;;11.10;99.90;;;;;;5063291;28;20245;-53
2022/04/15 08:14:59;;;;;;;8.50;4.30;;;11.60;99.90;;;;;;5065200;28;20218;-53
2022/04/15 08:17:26;;;;;;;6.17;4.40;;;11.80;99.90;;;;;;5065367;28;20224;-53
2022/04/15 08:19:53;;;;;;;4.90;4.17;;;12.30;99.90;;;;;;5064270;28;20196;-55
2022/04/15 08:22:20;;;;;;;5.40;3.80;;;12.00;99.90;;;;;;5065375;28;20226;-55
2022/04/15 08:24:47;;;;;;;7.83;3.80;;;12.10;99.90;;;;;;5064455;28;20194;-56
2022/04/15 08:27:13;;;;;;;4.93;3.70;;;12.30;99.90;;;;;;5057585;28;20256;-53
2022/04/15 08:29:42;;;;;;;6.97;4.47;;;12.40;99.90;;;;;;5058092;28;20392;-53
2022/04/15 08:32:09;;;;;;;6.57;3.77;;;12.40;99.90;;;;;;5065096;28;20675;-54
2022/04/15 08:34:36;;;;;;;6.03;3.70;;;12.30;99.90;;;;;;5063742;28;20211;-56
2022/04/15 08:37:04;;;;;;;5.30;4.63;;;12.30;99.90;;;;;;5062742;28;20206;-56
2022/04/15 08:39:31;;;;;;;6.07;4.17;;;12.30;99.90;;;;;;5067194;28;20347;-55
2022/04/15 08:41:59;;;;;;;5.37;4.60;;;12.30;99.90;;;;;;5064367;28;20265;-53
2022/04/15 08:44:26;;;;;;;5.00;4.40;;;12.20;99.90;;;;;;5065988;28;20212;-54
2022/04/15 08:46:53;;;;;;;6.13;4.07;;;12.30;99.90;;;;;;5069005;28;20224;-54
2022/04/15 08:49:22;;;;;;;4.50;4.10;;;12.40;99.90;;;;;;5066008;28;20195;-54
2022/04/15 08:51:50;;;;;;;6.67;3.80;;;12.60;99.90;;;;;;5062066;28;20649;-56
2022/04/15 08:54:18;;;;;;;4.63;4.23;;;13.10;99.90;;;;;;5044427;28;20318;-54
2022/04/15 08:56:45;;;;;;;7.87;4.33;;;13.40;99.90;;;;;;5061355;28;20534;-54
2022/04/15 08:59:14;;;;;;;4.53;3.93;;;13.20;99.90;;;;;;5061549;28;20199;-55
2022/04/15 09:01:41;;;;;;;6.63;3.63;;;13.10;99.90;;;;;;5060453;28;20252;-53
2022/04/15 09:04:08;;;;;;;4.17;3.77;;;12.80;99.90;;;;;;5040343;28;20290;-54
2022/04/15 09:06:35;;;;;;;5.60;3.97;;;12.70;99.90;;;;;;5053775;28;20212;-56
2022/04/15 09:09:12;;;;;;;4.60;4.13;;;13.00;99.90;;;;;;5061042;28;20206;-54
2022/04/15 09:11:40;;;;;;;3.90;3.43;;;13.00;99.90;;;;;;5043714;28;20572;-54
2022/04/15 09:14:12;;;;;;;5.53;4.40;;;13.00;99.90;;;;;;5061594;28;20725;-54
2022/04/15 09:16:41;;;;;;;5.63;3.33;;;13.00;99.90;;;;;;5041635;28;20654;-53
2022/04/15 09:19:10;;;;;;;5.00;4.00;;;13.10;99.90;;;;;;5058947;28;20198;-54
2022/04/15 09:21:38;;;;;;;4.50;3.97;;;12.70;99.90;;;;;;5061921;28;20227;-54
2022/04/15 09:24:07;;;;;;;5.27;4.10;;;12.90;99.90;;;;;;5057081;28;20236;-54
2022/04/15 09:26:36;;;;;;;5.07;3.77;;;12.80;99.90;;;;;;5063039;28;20207;-53
2022/04/15 09:29:03;;;;;;;6.60;4.00;;;13.00;99.90;;;;;;5057886;28;20276;-54
2022/04/15 09:31:30;;;;;;;7.50;4.10;;;13.40;99.90;;;;;;5055356;28;20205;-54
2022/04/15 09:33:58;;;;;;;4.13;3.73;;;13.50;99.90;;;;;;5061522;28;20238;-54
2022/04/15 09:36:25;;;;;;;5.90;4.60;;;13.20;99.90;;;;;;5061134;28;20222;-54
2022/04/15 09:39:17;;;;;;;4.83;4.17;;;13.40;99.90;;;;;;5059549;28;20272;-53
2022/04/15 09:41:52;;;;;;;8.17;4.00;;;13.50;99.90;;;;;;5060492;28;20644;-54
2022/04/15 09:44:21;;;;;;;4.20;3.77;;;14.40;99.90;;;;;;5061080;28;20633;-53
2022/04/15 09:46:51;;;;;;;4.00;3.60;;;14.50;99.90;;;;;;5064126;28;20210;-54
2022/04/15 09:49:18;;;;;;;7.80;3.87;;;14.30;99.90;;;;;;5058035;28;20643;-53
2022/04/15 09:51:51;;;;;;;5.07;3.67;;;13.90;99.90;;;;;;5062246;28;20737;-54
2022/04/15 09:54:21;;;;;;;4.20;3.80;;;13.50;99.90;;;;;;5061875;28;20215;-56
2022/04/15 09:56:48;;;;;;;4.47;3.40;;;13.90;99.90;;;;;;5056620;28;20743;-53
2022/04/15 09:59:19;;;;;;;4.00;3.60;;;14.50;99.90;;;;;;5063388;28;20769;-56
2022/04/15 10:01:48;;;;;;;4.53;3.70;;;14.70;99.90;;;;;;5055624;28;20200;-55
2022/04/15 10:04:14;;;;;;;6.20;4.27;;;15.10;99.90;;;;;;5056559;28;20198;-54
2022/04/15 10:06:42;;;;;;;5.20;4.03;;;15.10;99.90;;;;;;5059321;28;20245;-54
2022/04/15 10:09:13;;;;;;;6.80;3.83;;;14.80;99.90;;;;;;5062613;28;20266;-53
2022/04/15 10:11:46;;;;;;;7.20;4.10;;;14.70;99.90;;;;;;5045989;28;20653;-53
2022/04/15 10:14:15;;;;;;;6.77;3.73;;;14.60;99.90;;;;;;5063174;28;20297;-53
2022/04/15 10:16:43;;;;;;;4.30;3.90;;;14.40;99.90;;;;;;5065843;28;20262;-54
2022/04/15 10:19:11;;;;;;;4.43;3.70;;;14.20;99.90;;;;;;5062453;28;20204;-54
2022/04/15 10:21:42;;;;;;;4.57;4.17;;;14.40;99.90;;;;;;5059300;28;20706;-54
2022/04/15 10:24:09;;;;;;;3.93;3.53;;;14.10;99.90;;;;;;5057534;28;20226;-53
2022/04/15 10:26:47;;;;;;;4.47;3.53;;;14.10;99.90;;;;;;5061766;28;20224;-52
2022/04/15 10:29:13;;;;;;;4.47;3.83;;;14.30;99.90;;;;;;5058101;28;20204;-53
2022/04/15 10:31:46;;;;;;;4.70;4.30;;;14.70;99.90;;;;;;5063123;28;20548;-52
2022/04/15 10:34:17;;;;;;;5.33;4.73;;;14.40;99.90;;;;;;5065905;28;20239;-53
2022/04/15 10:36:55;;;;;;;5.43;4.00;;;14.50;99.90;;;;;;5063378;28;20204;-58
2022/04/15 10:39:29;;;;;;;5.03;3.67;;;15.00;99.90;;;;;;5066502;28;20287;-54
2022/04/15 10:41:58;;;;;;;5.67;4.00;;;14.70;99.90;;;;;;5066694;28;20211;-52
2022/04/15 10:44:33;;;;;;;4.33;3.93;;;14.60;99.90;;;;;;5065312;28;20192;-53
2022/04/15 10:47:13;;;;;;;3.83;3.53;;;14.80;99.90;;;;;;5061065;28;20626;-53
2022/04/15 10:49:54;;;;;;;4.40;3.43;;;14.60;99.90;;;;;;5064610;28;20264;-53
2022/04/15 10:52:24;;;;;;;4.37;3.83;;;14.30;99.90;;;;;;5068912;28;20278;-53
2022/04/15 10:54:57;;;;;;;4.73;3.83;;;14.70;99.90;;;;;;5068155;28;20219;-53
2022/04/15 10:57:41;;;;;;;6.20;3.50;;;14.70;99.90;;;;;;5062028;28;20921;-54
2022/04/15 11:03:18;;;;;;;6.60;3.67;;;14.60;99.90;;;;;;5060569;28;20230;-58
2022/04/15 11:05:49;;;;;;;5.07;3.73;;;14.70;99.90;;;;;;5059264;28;20234;-53
2022/04/15 11:08:20;;;;;;;4.17;3.50;;;14.90;99.90;;;;;;5066537;28;20548;-53
2022/04/15 11:10:50;;;;;;;4.20;3.70;;;14.90;99.90;;;;;;5058650;28;20204;-53
2022/04/15 11:13:28;;;;;;;4.17;3.40;;;15.00;99.90;;;;;;5060406;28;21800;-54
2022/04/15 11:15:59;;;;;;;4.10;3.60;;;14.80;99.90;;;;;;5064730;28;20569;-54
2022/04/15 11:18:50;;;;;;;4.10;3.43;;;15.20;99.90;;;;;;5064195;28;20203;-52
2022/04/15 11:21:29;;;;;;;5.77;3.57;;;15.10;99.90;;;;;;5070557;28;20302;-54
2022/04/15 11:24:04;;;;;;;3.60;3.30;;;15.50;99.90;;;;;;5062944;28;20248;-54
2022/04/15 11:26:32;;;;;;;4.77;3.47;;;15.70;99.90;;;;;;5050539;28;20301;-53
2022/04/15 11:29:02;;;;;;;4.40;3.27;;;15.30;99.90;;;;;;5058988;28;20210;-53
2022/04/15 11:31:37;;;;;;;5.60;3.50;;;15.60;99.90;;;;;;5047617;28;20204;-56
2022/04/15 11:34:06;;;;;;;5.93;3.03;;;16.30;99.90;;;;;;5032836;28;20220;-54
2022/04/15 11:36:35;;;;;;;4.50;3.40;;;16.90;99.90;;;;;;5049660;28;20243;-54
2022/04/15 11:39:04;;;;;;;5.70;3.23;;;16.90;99.90;;;;;;5047424;28;20284;-53
2022/04/15 11:41:32;;;;;;;5.47;3.73;;;16.20;99.90;;;;;;5053941;28;20559;-54
2022/04/15 11:44:01;;;;;;;4.00;3.33;;;15.40;99.90;;;;;;5057981;28;20309;-54
2022/04/15 11:46:46;;;;;;;4.60;3.53;;;15.60;99.90;;;;;;5031009;28;20236;-55
2022/04/15 11:49:28;;;;;;;4.40;3.53;;;14.90;99.90;;;;;;5060361;28;20244;-53
2022/04/15 11:51:57;;;;;;;5.20;3.10;;;15.80;99.90;;;;;;5050189;28;20240;-53
2022/04/15 11:54:32;;;;;;;3.57;3.23;;;15.80;99.90;;;;;;5055962;28;20299;-53
2022/04/15 11:57:01;;;;;;;3.50;3.20;;;16.00;99.90;;;;;;5048404;28;20287;-53
2022/04/15 11:59:35;;;;;;;4.10;3.57;;;15.40;99.90;;;;;;5049942;28;20236;-54
2022/04/15 12:02:02;;;;;;;5.07;3.13;;;15.90;99.90;;;;;;5038001;28;20240;-53
2022/04/15 12:04:29;;;;;;;4.33;3.10;;;16.00;99.90;;;;;;5048848;28;20677;-53
2022/04/15 12:06:57;;;;;;;4.07;3.00;;;16.50;99.90;;;;;;5050088;28;20204;-54
2022/04/15 12:09:25;;;;;;;4.93;3.73;;;16.40;99.90;;;;;;5048632;28;20229;-53
2022/04/15 12:12:05;;;;;;;4.60;4.00;;;16.70;99.90;;;;;;5050163;28;20614;-55
2022/04/15 12:14:37;;;;;;;7.23;5.67;;;16.90;99.90;;;;;;5050296;28;20202;-54
2022/04/15 12:17:07;;;;;;;7.20;4.03;;;16.10;99.90;;;;;;5049566;28;20287;-54
2022/04/15 12:19:35;;;;;;;4.07;3.40;;;16.20;99.90;;;;;;5048703;28;20204;-55
2022/04/15 12:22:03;;;;;;;3.80;3.30;;;16.30;99.90;;;;;;5032186;28;20739;-53
2022/04/15 12:24:30;;;;;;;4.37;3.53;;;17.20;99.90;;;;;;5068360;28;20771;-53
2022/04/15 12:27:01;;;;;;;4.50;3.83;;;17.40;99.90;;;;;;5060377;28;20327;-53
2022/04/15 12:29:47;;;;;;;4.27;3.60;;;17.10;99.90;;;;;;5069727;28;20874;-53
2022/04/15 12:32:26;;;;;;;4.37;3.73;;;16.90;99.90;;;;;;5065412;28;20210;-54
2022/04/15 12:34:56;;;;;;;4.07;3.67;;;17.00;99.90;;;;;;5068452;28;20252;-54
2022/04/15 12:37:49;;;;;;;5.07;3.80;;;17.50;99.90;;;;;;5069967;28;20209;-55
2022/04/15 12:40:22;;;;;;;4.03;3.57;;;17.20;99.90;;;;;;5069211;28;20548;-56
2022/04/15 12:42:50;;;;;;;4.10;3.63;;;16.90;99.90;;;;;;5069162;28;20496;-54
2022/04/15 12:45:20;;;;;;;3.93;3.37;;;16.70;99.90;;;;;;5067756;28;20229;-54
2022/04/15 12:48:10;;;;;;;4.77;4.07;;;17.00;99.90;;;;;;5068262;28;20281;-54
2022/04/15 12:50:39;;;;;;;5.87;4.50;;;17.30;99.90;;;;;;5056944;28;20299;-53